Главная страница
METAR-TAF:

METAR-TAF

Аэропорты :

Ljungbyhed, Швеция

широта: 56-04N, долгота: 013-12E, высота над уровнем моря: 43 м

Текущие метеонаблюдения

Эта сводка был подготовлена 32 минут назад, в 10:50 UTC
Ветер 9 Узел от западно-северо-западный
Температура 13°C
Влажность 77%
Давление 1011 hPa
Видимость 10 км и более

METAR: ESTL 251050Z AUTO 30009KT 9999 FEW017/// OVC020/// 13/09 Q1011

Время: 13:22 (11:22 UTC)

Прогноз

Эта сводка был подготовлена 24 часа и 25 минут назад, в 10:57 UTC
Прогноз действительный с 24-го 12 UTC до 24-го 15 UTC
Ветер 12 Узел от юго-западный
Видимость 10 км и более
Рассеянная облачность на высоте 2000 фута
изменения
С 24-го 12 UTC до 24-го 14 UTC
Ветер 8 Узел от западный
временами
С 24-го 12 UTC до 24-го 15 UTC
дождь

TAF: ESTL 241057Z 2412/2415 22012KT 9999 BKN020 BECMG 2412/2414 28008KT TEMPO 2412/2415 RA

Метеонаблюдения и прогнозы для более 4000 аэропортов (сводки METAR и TAF).

Имеющиеся станции представлены на карте желтыми и красными точками.

Чтобы увидеть название станции, наведите на нее мышь.

Затем щелкните, чтобы увидеть метеонаблюдения и метеопрогнозы.

Управление картой: чтобы увеличить масштаб, щелкните зеленые кнопки с черным крестиком; чтобы уменьшить масштаб, щелкните зеленую кнопку с тире; для просмотра соседних карт щелкайте зеленые стрелки.


METAR-TAF: